createdAt,value
2022-08-25T00:00:42.294Z,7.35
2022-08-25T00:05:46.592Z,6.97
2022-08-25T00:10:59.873Z,7.20
2022-08-25T00:16:08.629Z,7.55
2022-08-25T00:21:11.111Z,7.10
2022-08-25T00:26:15.635Z,7.35
2022-08-25T00:31:23.413Z,7.97
2022-08-25T00:36:40.668Z,7.20
2022-08-25T00:41:44.425Z,7.93
2022-08-25T00:46:50.471Z,7.93
2022-08-25T00:51:56.654Z,7.43
2022-08-25T00:57:00.235Z,7.90
2022-08-25T01:02:07.575Z,8.20
2022-08-25T01:07:15.498Z,8.43
2022-08-25T01:12:21.471Z,7.93
2022-08-25T01:17:28.104Z,8.70
2022-08-25T01:22:32.191Z,7.78
2022-08-25T01:27:34.948Z,8.85
2022-08-25T01:32:37.442Z,7.50
2022-08-25T01:37:41.773Z,8.07
2022-08-25T01:42:55.773Z,7.72
2022-08-25T01:47:58.545Z,8.65
2022-08-25T01:53:07.072Z,8.05
2022-08-25T01:58:09.674Z,8.20
2022-08-25T02:03:18.556Z,8.18
2022-08-25T02:08:24.093Z,8.73
2022-08-25T02:13:31.116Z,8.48
2022-08-25T02:18:34.201Z,8.30
2022-08-25T02:23:38.238Z,8.43
2022-08-25T02:28:40.742Z,8.05
2022-08-25T02:33:43.234Z,8.45
2022-08-25T02:38:47.120Z,8.55
2022-08-25T02:43:50.729Z,8.98
2022-08-25T02:48:54.330Z,9.23
2022-08-25T02:53:59.129Z,9.65
2022-08-25T02:59:02.906Z,9.30
2022-08-25T03:04:07.264Z,8.55
2022-08-25T03:09:11.169Z,8.82
2022-08-25T03:14:13.869Z,8.80
2022-08-25T03:19:16.720Z,9.43
2022-08-25T03:24:20.557Z,9.02
2022-08-25T03:29:25.454Z,9.23
2022-08-25T03:34:30.433Z,9.43
2022-08-25T03:39:34.426Z,8.23
2022-08-25T03:44:36.972Z,8.75
2022-08-25T03:49:39.443Z,8.25
2022-08-25T03:54:43.291Z,9.05
2022-08-25T03:59:45.798Z,9.60
2022-08-25T04:04:48.669Z,9.18
2022-08-25T04:09:54.736Z,9.30
2022-08-25T04:14:57.450Z,10.00
2022-08-25T04:20:00.602Z,10.15
2022-08-25T04:25:05.865Z,9.68
2022-08-25T04:30:09.924Z,8.73
2022-08-25T04:35:12.403Z,8.20
2022-08-25T04:40:16.294Z,9.23
2022-08-25T04:45:18.989Z,9.13
2022-08-25T04:50:21.521Z,9.40
2022-08-25T04:55:25.427Z,8.98
2022-08-25T05:00:27.878Z,8.32
2022-08-25T05:05:31.082Z,9.27
2022-08-25T05:10:40.540Z,9.13
2022-08-25T05:15:54.017Z,8.48
2022-08-25T05:20:57.788Z,9.88
2022-08-25T05:26:06.962Z,9.20
2022-08-25T05:31:12.467Z,8.93
2022-08-25T05:36:17.111Z,9.27
2022-08-25T05:41:23.278Z,8.77
2022-08-25T05:46:26.184Z,8.95
2022-08-25T05:51:28.877Z,9.52
2022-08-25T05:56:32.676Z,11.35
2022-08-25T06:01:53.024Z,11.30
2022-08-25T06:06:55.713Z,12.60
2022-08-25T06:11:59.571Z,12.43
2022-08-25T06:17:03.142Z,12.15
2022-08-25T06:22:05.883Z,13.70
2022-08-25T06:27:09.667Z,11.60
2022-08-25T06:32:12.140Z,12.50
2022-08-25T06:37:14.632Z,15.50
2022-08-25T06:42:18.463Z,17.42
2022-08-25T06:47:21.114Z,17.60
2022-08-25T06:52:29.429Z,17.85
2022-08-25T06:57:35.729Z,17.92
2022-08-25T07:02:38.562Z,16.83
2022-08-25T07:07:43.097Z,17.27
2022-08-25T07:12:47.953Z,17.80
2022-08-25T07:17:50.865Z,20.10
2022-08-25T07:22:53.414Z,16.23
2022-08-25T07:27:59.050Z,16.48
2022-08-25T07:33:05.879Z,14.48
2022-08-25T07:38:10.265Z,15.23
2022-08-25T07:43:17.201Z,13.52
2022-08-25T07:48:21.583Z,16.48
2022-08-25T07:53:24.926Z,16.10
2022-08-25T07:58:30.975Z,17.45
2022-08-25T08:03:50.492Z,16.58
2022-08-25T08:08:57.804Z,14.70
2022-08-25T08:14:03.191Z,15.57
2022-08-25T08:19:06.108Z,16.55
2022-08-25T08:24:24.873Z,15.67
2022-08-25T08:29:33.517Z,13.83
2022-08-25T08:34:38.078Z,14.65
2022-08-25T08:39:41.247Z,14.30
2022-08-25T08:44:57.032Z,14.05
2022-08-25T08:50:05.901Z,13.85
2022-08-25T08:55:13.819Z,13.35
2022-08-25T09:00:18.910Z,13.88
2022-08-25T09:05:25.450Z,13.32
2022-08-25T09:10:39.172Z,13.32
2022-08-25T09:21:15.851Z,12.88
2022-08-25T09:26:29.286Z,12.93
2022-08-25T09:31:38.694Z,11.70
2022-08-25T09:36:41.351Z,11.80
2022-08-25T09:41:51.151Z,11.77
2022-08-25T09:47:04.849Z,12.25
2022-08-25T09:52:22.223Z,13.35
2022-08-25T09:57:30.695Z,12.75
2022-08-25T10:02:34.520Z,13.98
2022-08-25T10:07:51.869Z,12.65
2022-08-25T10:12:55.080Z,12.45
2022-08-25T10:18:22.112Z,11.73
2022-08-25T10:23:28.995Z,11.48
2022-08-25T10:28:39.545Z,10.15
2022-08-25T10:33:55.599Z,10.57
2022-08-25T10:39:01.511Z,10.88
2022-08-25T10:44:29.427Z,10.75
2022-08-25T10:49:40.790Z,11.85
2022-08-25T10:54:58.510Z,10.80
2022-08-25T11:00:07.357Z,9.18
2022-08-25T11:05:24.563Z,9.85
2022-08-25T11:10:35.867Z,9.77
2022-08-25T11:16:00.179Z,9.35
2022-08-25T11:21:15.612Z,9.55
2022-08-25T11:26:28.939Z,7.82
2022-08-25T11:31:39.288Z,7.28
2022-08-25T11:36:52.055Z,7.03
2022-08-25T11:42:05.926Z,8.10
2022-08-25T11:47:32.001Z,7.50
2022-08-25T11:52:49.304Z,8.10
2022-08-25T11:58:15.031Z,7.65
2022-08-25T12:03:47.225Z,7.28
2022-08-25T12:09:20.437Z,7.45
2022-08-25T12:14:45.692Z,7.75
2022-08-25T12:19:54.891Z,9.07
2022-08-25T12:25:06.941Z,7.68
2022-08-25T12:30:20.615Z,7.88
2022-08-25T12:35:30.394Z,7.18
2022-08-25T12:40:54.173Z,7.32
2022-08-25T12:46:31.840Z,7.97
2022-08-25T12:51:57.489Z,7.53
2022-08-25T12:57:08.275Z,8.10
2022-08-25T13:02:39.853Z,7.78
2022-08-25T13:08:16.851Z,8.13
2022-08-25T13:13:34.619Z,7.30
2022-08-25T13:18:38.994Z,7.60
2022-08-25T13:23:44.597Z,7.55
2022-08-25T13:28:54.815Z,6.60
2022-08-25T13:34:00.022Z,7.93
2022-08-25T13:39:13.782Z,7.63
2022-08-25T13:44:22.413Z,6.43
2022-08-25T13:49:27.371Z,6.78
2022-08-25T13:54:40.548Z,7.22
2022-08-25T13:59:52.103Z,7.10
2022-08-25T14:04:56.412Z,7.53
2022-08-25T14:10:03.007Z,7.28
2022-08-25T14:15:27.882Z,7.30
2022-08-25T14:20:33.624Z,7.55
2022-08-25T14:25:40.660Z,7.47
2022-08-25T14:30:51.749Z,7.43
2022-08-25T14:35:59.545Z,7.97
2022-08-25T14:41:02.203Z,10.75
2022-08-25T14:46:15.429Z,7.55
2022-08-25T14:51:18.415Z,7.70
2022-08-25T14:56:20.941Z,7.15
2022-08-25T15:01:28.665Z,7.40
2022-08-25T15:06:31.843Z,6.70
2022-08-25T15:11:36.145Z,7.57
2022-08-25T15:16:45.790Z,7.63
2022-08-25T15:21:49.630Z,7.30
2022-08-25T15:32:07.009Z,7.55
2022-08-25T15:37:12.393Z,7.20
2022-08-25T15:42:16.704Z,6.65
2022-08-25T15:47:21.077Z,7.25
2022-08-25T15:52:28.173Z,6.45
2022-08-25T15:57:32.820Z,6.50
2022-08-25T16:02:36.903Z,6.68
2022-08-25T16:07:39.878Z,7.57
2022-08-25T16:12:42.602Z,6.83
2022-08-25T16:17:51.062Z,7.10
2022-08-25T16:22:53.933Z,7.57
2022-08-25T16:27:56.931Z,7.28
2022-08-25T16:38:05.874Z,6.85
2022-08-25T16:43:08.882Z,6.55
2022-08-25T16:48:14.033Z,7.43
2022-08-25T16:53:33.975Z,6.72
2022-08-25T16:58:38.208Z,6.82
2022-08-25T17:03:44.290Z,7.57
2022-08-25T17:08:49.407Z,7.40
2022-08-25T17:13:53.915Z,6.88
2022-08-25T17:19:01.302Z,6.45
2022-08-25T17:24:05.043Z,7.57
2022-08-25T17:29:08.375Z,7.18
2022-08-25T17:34:16.351Z,7.60
2022-08-25T17:39:22.161Z,7.35
2022-08-25T17:44:26.708Z,7.72
2022-08-25T17:49:32.079Z,8.07
2022-08-25T17:54:34.582Z,6.70
2022-08-25T17:59:38.709Z,8.03
2022-08-25T18:04:44.282Z,6.97
2022-08-25T18:09:46.985Z,8.88
2022-08-25T18:14:51.665Z,8.18
2022-08-25T18:19:56.795Z,7.53
2022-08-25T18:25:01.703Z,7.80
2022-08-25T18:30:09.748Z,7.50
2022-08-25T18:35:16.736Z,8.13
2022-08-25T18:40:25.869Z,8.30
2022-08-25T18:45:33.706Z,7.63
2022-08-25T18:50:47.324Z,9.20
2022-08-25T18:55:55.493Z,8.57
2022-08-25T19:01:03.492Z,9.68
2022-08-25T19:06:09.440Z,8.25
2022-08-25T19:11:13.862Z,8.63
2022-08-25T19:16:21.338Z,8.85
2022-08-25T19:21:27.853Z,8.90
2022-08-25T19:26:30.615Z,9.43
2022-08-25T19:31:33.841Z,8.98
2022-08-25T19:36:37.866Z,8.90
2022-08-25T19:41:41.993Z,8.63
2022-08-25T19:46:50.775Z,10.55
2022-08-25T19:52:05.947Z,9.68
2022-08-25T19:57:27.713Z,11.43
2022-08-25T20:02:31.649Z,10.60
2022-08-25T20:12:40.853Z,10.07
2022-08-25T20:17:45.082Z,11.13
2022-08-25T20:22:49.755Z,9.52
2022-08-25T20:27:57.000Z,11.13
2022-08-25T20:32:59.878Z,9.52
2022-08-25T20:38:05.242Z,9.90
2022-08-25T20:43:10.499Z,9.77
2022-08-25T20:48:14.760Z,8.90
2022-08-25T20:53:18.779Z,8.35
2022-08-25T20:58:21.602Z,9.15
2022-08-25T21:03:28.961Z,9.55
2022-08-25T21:08:34.049Z,9.07
2022-08-25T21:13:37.802Z,9.38
2022-08-25T21:18:44.213Z,9.75
2022-08-25T21:23:54.708Z,9.40
2022-08-25T21:28:59.572Z,12.93
2022-08-25T21:34:03.592Z,9.48
2022-08-25T21:39:08.485Z,9.18
2022-08-25T21:44:11.633Z,9.55
2022-08-25T21:49:14.152Z,10.20
2022-08-25T21:54:23.434Z,8.43
2022-08-25T21:59:29.903Z,10.25
2022-08-25T22:04:33.522Z,9.60
2022-08-25T22:09:37.485Z,9.02
2022-08-25T22:14:40.401Z,9.07
2022-08-25T22:19:43.185Z,8.70
2022-08-25T22:24:52.804Z,10.07
2022-08-25T22:29:55.572Z,9.63
2022-08-25T22:34:58.959Z,8.80
2022-08-25T22:40:07.041Z,9.02
2022-08-25T22:45:13.974Z,10.35
2022-08-25T22:50:17.413Z,10.10
2022-08-25T22:55:22.269Z,10.93
2022-08-25T23:00:25.341Z,9.10
2022-08-25T23:05:36.682Z,9.63
2022-08-25T23:10:57.666Z,10.00
2022-08-25T23:16:13.539Z,9.52
2022-08-25T23:21:38.227Z,10.85
2022-08-25T23:26:58.939Z,10.30
2022-08-25T23:32:03.799Z,10.07
2022-08-25T23:37:14.917Z,9.30
2022-08-25T23:42:25.059Z,10.55
2022-08-25T23:47:34.401Z,10.35
2022-08-25T23:52:38.071Z,10.75
2022-08-25T23:57:51.548Z,10.52
